Time;durP1;ratioP1;P1;durP2;ratioP2;P2;SDS_P1;SDS_P2;PMS_P1;PMS_P2;Temp;Humidity;BMP_temperature;BMP_pressure;BME280_temperature;BME280_humidity;BME280_pressure;Samples;Min_cycle;Max_cycle;Signal;HPM_P1;HPM_P2
2022/10/01 00:02:10;;;;;;;28.10;19.00;;;;;;;10.71;80.79;99992.83;130395;1267;108744;-75
2022/10/01 00:05:15;;;;;;;26.00;16.40;;;;;;;10.71;80.69;99994.42;130450;1268;108467;-76
2022/10/01 00:08:21;;;;;;;24.10;15.20;;;;;;;10.70;80.80;99992.63;130324;1268;108597;-75
2022/10/01 00:11:27;;;;;;;29.20;17.80;;;;;;;10.70;80.85;99991.23;130439;1268;108502;-75
2022/10/01 00:14:32;;;;;;;29.40;18.60;;;;;;;10.71;80.81;99984.20;130396;1268;108816;-75
2022/10/01 00:17:38;;;;;;;28.90;19.60;;;;;;;10.72;80.51;99977.66;130391;1268;108696;-76
2022/10/01 00:20:44;;;;;;;31.50;19.30;;;;;;;10.72;80.81;99980.33;130456;1268;108757;-76
2022/10/01 00:23:53;;;;;;;32.20;19.90;;;;;;;10.69;80.77;99975.79;130469;1268;108830;-74
2022/10/01 00:26:59;;;;;;;26.40;18.70;;;;;;;10.67;80.73;99973.03;130414;1268;109474;-77
2022/10/01 00:30:06;;;;;;;27.20;17.20;;;;;;;10.61;80.98;99977.65;130437;1268;107678;-77
2022/10/01 00:33:12;;;;;;;27.30;15.90;;;;;;;10.57;80.61;99985.60;130437;1268;108736;-77
2022/10/01 00:36:17;;;;;;;25.50;16.50;;;;;;;10.56;81.10;99990.13;130538;1268;108721;-76
2022/10/01 00:39:23;;;;;;;26.20;17.50;;;;;;;10.58;80.91;99987.10;130448;1268;108772;-76
2022/10/01 00:42:29;;;;;;;27.30;17.50;;;;;;;10.59;81.01;99992.25;130419;1268;108886;-76
2022/10/01 00:45:34;;;;;;;29.20;17.80;;;;;;;10.57;80.90;99992.83;130513;1268;108827;-74
2022/10/01 00:48:49;;;;;;;30.40;19.30;;;;;;;10.55;80.80;99988.06;130395;1268;108641;-74
2022/10/01 00:51:57;;;;;;;26.50;18.20;;;;;;;10.53;80.72;99997.96;130470;1268;108819;-75
2022/10/01 00:55:07;;;;;;;24.90;16.30;;;;;;;10.48;80.84;100010.30;130470;1268;108726;-76
2022/10/01 00:58:15;;;;;;;22.10;14.70;;;;;;;10.47;81.07;100013.00;130329;1268;108607;-75
2022/10/01 01:01:21;;;;;;;25.40;16.90;;;;;;;10.49;80.99;100008.11;130415;1267;108641;-75
2022/10/01 01:04:26;;;;;;;25.40;17.60;;;;;;;10.52;81.31;100005.68;130489;1268;108667;-75
2022/10/01 01:07:33;;;;;;;27.60;16.20;;;;;;;10.55;81.24;100009.13;130391;1268;108872;-74
2022/10/01 01:10:47;;;;;;;23.70;17.40;;;;;;;10.55;81.18;100011.91;130461;1268;108854;-75
2022/10/01 01:14:02;;;;;;;24.90;17.80;;;;;;;10.56;81.35;100010.61;130418;1268;108711;-75
2022/10/01 01:17:12;;;;;;;27.30;18.00;;;;;;;10.55;81.19;99997.70;130191;1268;109108;-76
2022/10/01 01:20:38;;;;;;;27.90;17.40;;;;;;;10.47;81.24;100002.80;130441;1268;108680;-75
2022/10/01 01:23:57;;;;;;;22.90;14.70;;;;;;;10.42;81.48;100000.66;130402;1268;108714;-76
2022/10/01 01:27:19;;;;;;;28.80;17.00;;;;;;;10.44;81.17;99992.31;130415;1268;108785;-76
2022/10/01 01:30:24;;;;;;;24.20;17.20;;;;;;;10.47;81.27;99988.09;130478;1268;108741;-76
2022/10/01 01:33:33;;;;;;;25.90;17.10;;;;;;;10.50;81.63;99998.81;130503;1268;108697;-77
2022/10/01 01:36:42;;;;;;;26.30;16.50;;;;;;;10.49;81.47;100002.40;130436;1268;108775;-75
2022/10/01 01:39:52;;;;;;;26.70;17.60;;;;;;;10.49;81.17;99999.63;130307;1268;108674;-76
2022/10/01 01:43:00;;;;;;;28.30;18.40;;;;;;;10.48;81.33;99998.13;130510;1268;107479;-75
2022/10/01 01:46:09;;;;;;;24.30;16.00;;;;;;;10.45;81.47;99992.33;130526;1267;108784;-75
2022/10/01 01:49:15;;;;;;;25.10;15.60;;;;;;;10.44;81.20;99986.94;130499;1268;108680;-75
2022/10/01 01:52:20;;;;;;;25.70;16.50;;;;;;;10.44;81.37;99986.43;130447;1268;108782;-76
2022/10/01 01:55:28;;;;;;;25.10;16.80;;;;;;;10.43;81.28;99984.88;130412;1268;108797;-74
2022/10/01 01:58:35;;;;;;;28.30;18.80;;;;;;;10.39;81.31;99989.98;130421;1268;107781;-75
2022/10/01 02:01:42;;;;;;;25.60;18.00;;;;;;;10.36;81.45;99987.60;130591;1268;108790;-76
2022/10/01 02:04:53;;;;;;;29.00;18.80;;;;;;;10.32;81.26;99981.37;132185;1266;108721;-77
2022/10/01 02:08:26;;;;;;;28.90;19.60;;;;;;;10.30;81.55;99974.36;131169;1267;108715;-76
2022/10/01 02:11:35;;;;;;;25.50;16.50;;;;;;;10.28;81.53;99970.61;130437;1268;108764;-75
2022/10/01 02:14:48;;;;;;;32.80;20.80;;;;;;;10.26;81.55;99970.66;130382;1268;108823;-75
2022/10/01 02:18:03;;;;;;;36.60;21.60;;;;;;;10.26;81.70;99972.60;130262;1268;107469;-77
2022/10/01 02:21:20;;;;;;;36.90;22.70;;;;;;;10.28;81.49;99963.73;130278;1268;109786;-76
2022/10/01 02:24:33;;;;;;;30.10;19.90;;;;;;;10.27;81.52;99957.74;130433;1268;107639;-76
2022/10/01 02:27:44;;;;;;;26.60;18.30;;;;;;;10.24;81.30;99958.57;130438;1268;108626;-75
2022/10/01 02:30:51;;;;;;;28.20;19.80;;;;;;;10.19;81.60;99953.53;130525;1268;108856;-76
2022/10/01 02:33:59;;;;;;;29.10;18.90;;;;;;;10.16;81.42;99948.92;130391;1267;108675;-75
2022/10/01 02:37:07;;;;;;;23.40;15.20;;;;;;;10.12;81.38;99953.06;130449;1268;107694;-76
2022/10/01 02:40:19;;;;;;;24.10;15.20;;;;;;;10.09;81.46;99958.88;130450;1268;107884;-76
2022/10/01 02:43:31;;;;;;;25.90;17.40;;;;;;;10.07;81.31;99972.39;130370;1268;108774;-75
2022/10/01 02:46:44;;;;;;;31.60;20.50;;;;;;;10.06;81.31;99969.99;130440;1268;108624;-75
2022/10/01 02:49:51;;;;;;;31.10;18.90;;;;;;;10.03;81.34;99973.43;130419;1268;109003;-75
2022/10/01 02:53:03;;;;;;;30.20;18.90;;;;;;;10.00;81.52;99971.52;130427;1266;108628;-76
2022/10/01 02:56:13;;;;;;;27.60;18.20;;;;;;;10.01;81.58;99961.80;130390;1268;108748;-75
2022/10/01 02:59:20;;;;;;;27.20;19.40;;;;;;;9.98;81.58;99959.27;130480;1267;108699;-75
2022/10/01 03:02:26;;;;;;;26.60;17.10;;;;;;;9.93;81.51;99962.27;130283;1267;108960;-76
2022/10/01 03:05:32;;;;;;;22.50;15.30;;;;;;;9.88;81.56;99960.66;130408;1268;108920;-77
2022/10/01 03:08:37;;;;;;;26.80;15.90;;;;;;;9.83;81.31;99961.80;130453;1268;108701;-75
2022/10/01 03:11:43;;;;;;;25.00;16.90;;;;;;;9.80;81.57;99959.45;130513;1267;108880;-76
2022/10/01 03:14:49;;;;;;;27.20;17.40;;;;;;;9.78;81.53;99958.90;130441;1267;108709;-76
2022/10/01 03:17:55;;;;;;;26.60;18.90;;;;;;;9.74;81.31;99958.84;130364;1268;108643;-77
2022/10/01 03:21:00;;;;;;;32.80;21.00;;;;;;;9.57;81.46;99963.73;130436;1268;108705;-79
2022/10/01 03:24:06;;;;;;;29.40;18.40;;;;;;;9.37;81.50;99963.42;130362;1267;108700;-76
2022/10/01 03:27:11;;;;;;;27.50;17.20;;;;;;;9.25;81.75;99963.74;130357;1268;108822;-76
2022/10/01 03:30:17;;;;;;;24.40;15.90;;;;;;;9.20;81.71;99979.99;130445;1267;107682;-74
2022/10/01 03:33:22;;;;;;;26.10;16.60;;;;;;;9.16;81.38;99984.12;130366;1268;108969;-74
2022/10/01 03:36:28;;;;;;;24.30;16.70;;;;;;;9.14;81.33;99985.02;130447;1268;108744;-75
2022/10/01 03:39:33;;;;;;;30.90;21.60;;;;;;;9.11;81.19;99984.30;130423;1267;108785;-76
2022/10/01 03:42:39;;;;;;;27.70;18.00;;;;;;;9.05;81.14;99989.13;130325;1268;108632;-76
2022/10/01 03:45:44;;;;;;;25.90;16.90;;;;;;;8.98;80.94;99988.86;131672;1267;108855;-77
2022/10/01 03:48:49;;;;;;;27.80;17.20;;;;;;;8.91;80.91;99984.21;130514;1267;108627;-77
2022/10/01 03:51:55;;;;;;;25.60;17.70;;;;;;;8.76;80.69;99978.40;130330;1268;109014;-76
2022/10/01 03:55:00;;;;;;;23.10;14.90;;;;;;;8.65;81.00;99971.70;130459;1268;106833;-76
2022/10/01 03:58:06;;;;;;;23.80;15.40;;;;;;;8.59;80.89;99969.73;130383;1268;108724;-76
2022/10/01 04:01:11;;;;;;;31.40;17.30;;;;;;;8.55;80.72;99965.70;130425;1268;108814;-75
2022/10/01 04:04:16;;;;;;;24.40;17.10;;;;;;;8.52;80.68;99966.95;130555;1268;107232;-76
2022/10/01 04:07:22;;;;;;;26.70;16.70;;;;;;;8.47;80.58;99965.10;130478;1268;108802;-75
2022/10/01 04:10:27;;;;;;;27.00;17.20;;;;;;;8.42;80.54;99960.76;130481;1267;108681;-75
2022/10/01 04:13:33;;;;;;;25.40;16.80;;;;;;;8.35;80.47;99949.47;130486;1268;108965;-76
2022/10/01 04:16:38;;;;;;;25.00;16.50;;;;;;;8.31;80.31;99947.46;130448;1266;108746;-76
2022/10/01 04:19:44;;;;;;;27.60;17.00;;;;;;;8.22;80.32;99941.48;130468;1267;108608;-76
2022/10/01 04:22:49;;;;;;;27.00;17.90;;;;;;;8.15;80.15;99943.24;130464;1267;108813;-75
2022/10/01 04:25:57;;;;;;;23.90;14.90;;;;;;;8.05;80.11;99945.60;130381;1268;108770;-76
2022/10/01 04:29:03;;;;;;;22.20;14.10;;;;;;;7.98;80.03;99946.59;130354;1267;108718;-76
2022/10/01 04:32:08;;;;;;;26.30;15.80;;;;;;;7.95;79.94;99941.43;130454;1268;108662;-76
2022/10/01 04:35:14;;;;;;;26.50;15.80;;;;;;;7.94;80.01;99942.02;130503;1268;108940;-76
2022/10/01 04:38:20;;;;;;;31.20;16.50;;;;;;;7.94;79.85;99939.36;130408;1268;108727;-76
2022/10/01 04:41:25;;;;;;;30.00;18.00;;;;;;;7.95;79.91;99940.20;130399;1267;108955;-76
2022/10/01 04:44:30;;;;;;;30.60;19.60;;;;;;;7.93;79.85;99945.91;130396;1268;108843;-75
2022/10/01 04:47:36;;;;;;;34.70;19.60;;;;;;;7.90;79.95;99949.33;130489;1267;108722;-76
2022/10/01 04:50:42;;;;;;;31.10;20.00;;;;;;;7.86;79.69;99951.08;130402;1268;108669;-76
2022/10/01 04:53:47;;;;;;;35.00;22.00;;;;;;;7.83;79.79;99954.15;130487;1268;108734;-75
2022/10/01 04:56:52;;;;;;;53.10;30.60;;;;;;;7.80;79.72;99953.04;130441;1267;108648;-76
2022/10/01 04:59:58;;;;;;;45.80;24.50;;;;;;;7.75;79.83;99953.88;130355;1267;108652;-76
2022/10/01 05:03:03;;;;;;;39.00;22.10;;;;;;;7.69;80.04;99949.55;130308;1268;108955;-76
2022/10/01 05:06:09;;;;;;;38.30;22.90;;;;;;;7.70;80.06;99949.05;130453;1268;109701;-74
2022/10/01 05:09:14;;;;;;;33.10;20.80;;;;;;;7.75;79.93;99955.19;130392;1267;107715;-74
2022/10/01 05:12:19;;;;;;;31.40;21.00;;;;;;;7.78;79.82;99957.91;130489;1267;108671;-73
2022/10/01 05:15:25;;;;;;;34.90;21.00;;;;;;;7.78;79.74;99959.95;130484;1267;108890;-73
2022/10/01 05:18:31;;;;;;;33.30;20.50;;;;;;;7.79;79.48;99959.13;130441;1267;108794;-72
2022/10/01 05:21:38;;;;;;;29.20;19.80;;;;;;;7.78;79.71;99958.52;130447;1268;108677;-73
2022/10/01 05:24:43;;;;;;;31.30;19.90;;;;;;;7.76;79.60;99958.41;130413;1267;107114;-73
2022/10/01 05:27:49;;;;;;;29.40;18.50;;;;;;;7.72;79.27;99963.90;130422;1267;108608;-73
2022/10/01 05:30:55;;;;;;;28.50;18.40;;;;;;;7.69;79.56;99957.88;130378;1267;108662;-75
2022/10/01 05:34:00;;;;;;;29.40;17.20;;;;;;;7.64;79.31;99960.70;130412;1267;108986;-74
2022/10/01 05:37:06;;;;;;;26.90;16.70;;;;;;;7.62;79.69;99948.59;130411;1268;108766;-75
2022/10/01 05:40:12;;;;;;;31.10;18.10;;;;;;;7.64;79.66;99946.96;130534;1267;108970;-74
2022/10/01 05:43:17;;;;;;;34.40;19.80;;;;;;;7.69;79.43;99945.98;130410;1267;109191;-75
2022/10/01 05:46:23;;;;;;;46.80;21.60;;;;;;;7.73;79.40;99947.31;130390;1267;108798;-74
2022/10/01 05:49:28;;;;;;;117.90;41.90;;;;;;;7.76;79.28;99945.80;130394;1267;108716;-73
2022/10/01 05:52:34;;;;;;;45.50;23.30;;;;;;;7.79;79.49;99946.47;130479;1267;107678;-73
2022/10/01 05:55:39;;;;;;;44.50;22.20;;;;;;;7.79;79.42;99944.63;130491;1267;108691;-74
2022/10/01 05:58:45;;;;;;;33.00;20.00;;;;;;;7.80;79.41;99936.60;130373;1268;108717;-74
2022/10/01 06:01:50;;;;;;;29.50;19.00;;;;;;;7.80;79.48;99933.75;130403;1267;108671;-74
2022/10/01 06:04:56;;;;;;;28.10;18.60;;;;;;;7.82;79.32;99930.73;130525;1267;107467;-74
2022/10/01 06:08:04;;;;;;;36.50;18.80;;;;;;;7.88;79.44;99935.14;130440;1268;108810;-74
2022/10/01 06:11:09;;;;;;;88.70;43.90;;;;;;;7.94;79.73;99935.30;130393;1268;108750;-74
2022/10/01 06:14:15;;;;;;;51.80;30.40;;;;;;;8.07;80.21;99927.71;130458;1267;108760;-74
2022/10/01 06:17:20;;;;;;;52.30;29.00;;;;;;;8.24;80.29;99921.54;130352;1267;108720;-74
2022/10/01 06:20:25;;;;;;;42.10;24.70;;;;;;;8.38;80.40;99921.02;130404;1267;108726;-74
2022/10/01 06:23:31;;;;;;;41.50;24.00;;;;;;;8.52;80.62;99917.65;130444;1268;108939;-74
2022/10/01 06:26:37;;;;;;;36.00;22.00;;;;;;;8.61;80.77;99910.83;130463;1267;107765;-74
2022/10/01 06:29:42;;;;;;;30.70;19.50;;;;;;;8.72;80.95;99911.77;130330;1268;108795;-73
2022/10/01 06:32:48;;;;;;;28.10;17.40;;;;;;;8.80;81.25;99912.90;130430;1267;108711;-77
2022/10/01 06:35:53;;;;;;;27.00;18.10;;;;;;;8.92;81.53;99912.34;130493;1268;108976;-77
2022/10/01 06:38:59;;;;;;;25.10;17.30;;;;;;;9.06;81.64;99907.77;130435;1267;108985;-74
2022/10/01 06:42:04;;;;;;;28.00;18.30;;;;;;;9.25;82.12;99917.21;130389;1267;108644;-76
2022/10/01 06:45:11;;;;;;;28.00;19.10;;;;;;;9.49;82.35;99914.69;130493;1267;108837;-78
2022/10/01 06:48:20;;;;;;;29.70;18.10;;;;;;;9.75;83.13;99920.23;130545;1268;108665;-76
2022/10/01 06:54:45;;;;;;;19.90;14.20;;;;;;;10.34;83.55;99911.87;130397;1267;109077;-80
2022/10/01 06:57:57;;;;;;;20.10;13.20;;;;;;;10.61;83.75;99910.67;130588;1268;108651;-81
2022/10/01 07:01:03;;;;;;;15.80;11.90;;;;;;;10.86;83.41;99910.88;130502;1267;108716;-79
2022/10/01 07:04:08;;;;;;;16.20;10.70;;;;;;;11.04;83.16;99907.85;130499;1267;108876;-78
2022/10/01 07:07:13;;;;;;;11.90;9.00;;;;;;;11.20;83.55;99911.48;130440;1267;108945;-75
2022/10/01 07:10:20;;;;;;;11.40;8.20;;;;;;;11.34;83.37;99915.31;130357;1268;109157;-74
2022/10/01 07:13:26;;;;;;;10.90;7.30;;;;;;;11.42;83.32;99916.61;130321;1267;108763;-72
2022/10/01 07:16:31;;;;;;;9.20;7.30;;;;;;;11.48;83.33;99923.94;130442;1267;109169;-75
2022/10/01 07:19:37;;;;;;;10.00;6.90;;;;;;;11.57;83.30;99919.05;130417;1267;108768;-74
2022/10/01 07:22:42;;;;;;;10.30;7.70;;;;;;;11.64;83.11;99920.23;130338;1268;108759;-75
2022/10/01 07:25:47;;;;;;;10.70;7.90;;;;;;;11.72;83.15;99922.73;130340;1268;106998;-74
2022/10/01 07:28:54;;;;;;;10.40;7.60;;;;;;;11.82;83.22;99923.88;130337;1268;108767;-78
2022/10/01 07:32:00;;;;;;;9.70;6.50;;;;;;;11.90;83.03;99924.02;130422;1268;108743;-74
2022/10/01 07:35:07;;;;;;;9.10;6.30;;;;;;;11.97;82.89;99926.66;130398;1268;107587;-73
2022/10/01 07:38:13;;;;;;;8.90;6.80;;;;;;;12.04;83.15;99922.63;130501;1268;108725;-72
2022/10/01 07:41:18;;;;;;;9.40;7.00;;;;;;;12.12;82.87;99930.16;130357;1267;108970;-75
2022/10/01 07:44:24;;;;;;;10.30;7.00;;;;;;;12.18;82.88;99926.30;130511;1267;108700;-74
2022/10/01 07:47:29;;;;;;;10.80;7.30;;;;;;;12.23;82.55;99924.30;130381;1267;109129;-79
2022/10/01 07:50:34;;;;;;;10.70;7.20;;;;;;;12.27;82.46;99926.21;130438;1267;108567;-76
2022/10/01 07:53:40;;;;;;;8.10;6.60;;;;;;;12.29;82.26;99923.63;130333;1266;108694;-74
2022/10/01 07:56:47;;;;;;;8.80;6.50;;;;;;;12.34;82.40;99922.34;130511;1267;108786;-74
2022/10/01 07:59:52;;;;;;;8.60;6.10;;;;;;;12.42;82.35;99919.64;130438;1268;108824;-75
2022/10/01 08:02:58;;;;;;;7.90;6.00;;;;;;;12.53;82.21;99918.20;130542;1267;108748;-76
2022/10/01 08:06:05;;;;;;;14.30;7.90;;;;;;;12.65;82.11;99911.08;130384;1267;107692;-74
2022/10/01 08:09:11;;;;;;;10.50;6.80;;;;;;;12.77;81.91;99907.00;130483;1268;107665;-74
2022/10/01 08:12:16;;;;;;;8.90;6.50;;;;;;;12.91;81.82;99904.31;130389;1268;109196;-75
2022/10/01 08:15:22;;;;;;;8.30;6.30;;;;;;;13.01;81.61;99902.43;130393;1267;109822;-74
2022/10/01 08:18:27;;;;;;;8.70;6.20;;;;;;;13.14;81.46;99904.14;130383;1267;107755;-76
2022/10/01 08:21:34;;;;;;;8.90;6.40;;;;;;;13.29;81.24;99905.96;130465;1266;108650;-76
2022/10/01 08:24:40;;;;;;;9.30;5.70;;;;;;;13.43;81.03;99893.81;130418;1268;108842;-75
2022/10/01 08:27:45;;;;;;;7.60;5.50;;;;;;;13.45;80.49;99894.27;130360;1268;108776;-75
2022/10/01 08:30:50;;;;;;;8.00;5.70;;;;;;;13.51;80.41;99885.73;130543;1268;108819;-76
2022/10/01 08:33:57;;;;;;;9.10;6.60;;;;;;;13.56;80.27;99883.75;130383;1265;108878;-76
2022/10/01 08:37:02;;;;;;;8.90;6.10;;;;;;;13.62;80.17;99884.59;130513;1267;108956;-75
2022/10/01 08:40:10;;;;;;;10.50;7.60;;;;;;;13.71;80.06;99881.73;130460;1267;108687;-75
2022/10/01 08:43:28;;;;;;;10.10;7.70;;;;;;;13.79;79.80;99879.95;130461;1268;107697;-74
2022/10/01 08:46:37;;;;;;;9.40;7.30;;;;;;;13.88;79.77;99875.25;130417;1267;108707;-75
2022/10/01 08:49:47;;;;;;;10.20;6.60;;;;;;;13.92;79.60;99876.02;130386;1267;108794;-75
2022/10/01 08:52:58;;;;;;;10.40;7.30;;;;;;;13.98;79.55;99875.72;130371;1267;108756;-74
2022/10/01 08:56:04;;;;;;;8.10;6.40;;;;;;;14.04;79.19;99870.98;130398;1268;108721;-76
2022/10/01 08:59:22;;;;;;;8.60;6.40;;;;;;;14.10;78.58;99868.07;130434;1267;108786;-76
2022/10/01 09:02:32;;;;;;;8.80;6.30;;;;;;;14.07;78.43;99867.44;130487;1267;107505;-75
2022/10/01 09:05:48;;;;;;;8.40;6.80;;;;;;;14.10;78.57;99870.62;130505;1267;108804;-76
2022/10/01 09:09:20;;;;;;;8.20;6.40;;;;;;;14.22;78.64;99862.39;130522;1267;108914;-77
2022/10/01 09:12:38;;;;;;;9.60;7.30;;;;;;;14.30;78.07;99850.11;130488;1267;108729;-77
2022/10/01 09:15:53;;;;;;;9.60;8.10;;;;;;;14.44;77.89;99852.75;130435;1266;108469;-77
2022/10/01 09:19:09;;;;;;;9.50;8.40;;;;;;;14.48;77.45;99843.60;130363;1268;108436;-78
2022/10/01 09:22:26;;;;;;;10.20;8.70;;;;;;;14.41;77.06;99839.67;130413;1267;108647;-74
2022/10/01 09:25:35;;;;;;;9.50;7.70;;;;;;;14.41;77.40;99836.33;130307;1267;109425;-74
2022/10/01 09:28:41;;;;;;;9.50;7.20;;;;;;;14.47;77.40;99827.14;130443;1267;108748;-73
2022/10/01 09:31:50;;;;;;;9.50;7.90;;;;;;;14.51;77.00;99827.73;130464;1267;108741;-74
2022/10/01 09:34:59;;;;;;;15.30;10.70;;;;;;;14.47;76.50;99823.59;130319;1267;108921;-75
2022/10/01 09:38:11;;;;;;;13.90;10.50;;;;;;;14.46;76.44;99821.42;130525;1267;109124;-77
2022/10/01 09:41:17;;;;;;;14.40;10.60;;;;;;;14.47;76.33;99819.98;130475;1267;108666;-77
2022/10/01 09:44:27;;;;;;;14.50;11.00;;;;;;;14.45;76.40;99820.02;130432;1267;109167;-74
2022/10/01 09:47:34;;;;;;;14.70;11.60;;;;;;;14.40;76.26;99819.79;130497;1267;108638;-75
2022/10/01 09:50:43;;;;;;;15.50;13.10;;;;;;;14.29;76.30;99813.65;130517;1267;108774;-75
2022/10/01 09:53:58;;;;;;;16.10;12.90;;;;;;;14.21;76.21;99814.03;130412;1268;108646;-75
2022/10/01 09:57:09;;;;;;;16.10;12.40;;;;;;;14.18;76.30;99803.14;130522;1267;108843;-73
2022/10/01 10:00:20;;;;;;;13.70;11.90;;;;;;;14.21;76.37;99800.41;130359;1268;108863;-74
2022/10/01 10:03:29;;;;;;;11.80;9.90;;;;;;;14.19;76.25;99798.86;130506;1267;107656;-73
2022/10/01 10:06:35;;;;;;;10.70;8.80;;;;;;;14.21;76.55;99796.40;130511;1267;108555;-75
2022/10/01 10:09:40;;;;;;;10.80;9.50;;;;;;;14.27;75.91;99790.38;130494;1267;107646;-74
2022/10/01 10:12:47;;;;;;;9.90;8.50;;;;;;;14.24;75.83;99783.69;130418;1267;109012;-74
2022/10/01 10:15:56;;;;;;;12.20;10.00;;;;;;;14.31;75.95;99780.42;130626;1267;108598;-73
2022/10/01 10:19:05;;;;;;;11.20;9.30;;;;;;;14.38;75.72;99775.13;130514;1267;108785;-76
2022/10/01 10:22:23;;;;;;;12.40;9.80;;;;;;;14.40;75.85;99762.11;130600;1267;109542;-76
2022/10/01 10:25:29;;;;;;;13.60;11.00;;;;;;;14.41;75.42;99755.77;130442;1267;108814;-76
2022/10/01 10:28:44;;;;;;;12.50;9.50;;;;;;;14.37;75.25;99750.05;130470;1267;108641;-76
2022/10/01 10:31:50;;;;;;;12.40;9.40;;;;;;;14.34;75.85;99747.14;130367;1267;109212;-75
2022/10/01 10:34:59;;;;;;;13.60;10.00;;;;;;;14.30;75.28;99738.50;130438;1266;108851;-76
2022/10/01 10:38:05;;;;;;;11.80;9.00;;;;;;;14.27;75.49;99728.93;130518;1267;108636;-76
2022/10/01 10:41:18;;;;;;;11.40;8.80;;;;;;;14.26;75.39;99731.20;130469;1267;108665;-76
2022/10/01 10:44:26;;;;;;;12.20;7.90;;;;;;;14.27;75.49;99726.05;130396;1268;108780;-76
2022/10/01 10:47:43;;;;;;;12.90;8.40;;;;;;;14.29;75.77;99721.27;130541;1267;108968;-74
2022/10/01 10:50:48;;;;;;;10.60;7.90;;;;;;;14.37;75.54;99714.01;130518;1268;108515;-74
2022/10/01 10:53:54;;;;;;;14.30;8.70;;;;;;;14.42;75.39;99705.88;130531;1267;108871;-76
2022/10/01 10:57:02;;;;;;;10.50;7.70;;;;;;;14.48;75.02;99698.71;130395;1268;179087;-77
2022/10/01 11:00:15;;;;;;;10.50;8.20;;;;;;;14.52;75.25;99696.90;131097;1267;109012;-77
2022/10/01 11:03:24;;;;;;;10.00;7.90;;;;;;;14.58;75.03;99693.91;130480;1267;108647;-76
2022/10/01 11:06:30;;;;;;;10.20;8.10;;;;;;;14.64;74.83;99687.48;130585;1268;108676;-76
2022/10/01 11:09:47;;;;;;;10.40;8.20;;;;;;;14.67;74.77;99689.49;130456;1268;108939;-75
2022/10/01 11:13:08;;;;;;;10.10;7.70;;;;;;;14.68;74.61;99677.53;130432;1267;108857;-76
2022/10/01 11:16:32;;;;;;;9.60;7.50;;;;;;;14.72;74.61;99665.31;130552;1267;108679;-75
2022/10/01 11:20:00;;;;;;;9.60;7.50;;;;;;;14.70;74.50;99661.81;130407;1267;108966;-79
2022/10/01 11:23:28;;;;;;;9.40;7.20;;;;;;;14.66;74.57;99655.53;131829;1267;107492;-77
2022/10/01 11:26:44;;;;;;;8.60;6.70;;;;;;;14.62;74.41;99649.02;131273;1267;109563;-78
2022/10/01 11:30:01;;;;;;;9.60;6.80;;;;;;;14.63;73.96;99645.52;130851;1267;108705;-75
2022/10/01 11:33:16;;;;;;;8.70;6.70;;;;;;;14.66;73.69;99641.66;130546;1266;108825;-75
2022/10/01 11:36:26;;;;;;;8.70;7.00;;;;;;;14.70;73.69;99638.84;130416;1267;108729;-76
2022/10/01 11:39:35;;;;;;;8.90;7.20;;;;;;;14.75;73.81;99636.61;130327;1268;108962;-77
2022/10/01 11:42:44;;;;;;;9.30;7.10;;;;;;;14.79;73.70;99637.70;130681;1267;108718;-77
2022/10/01 11:45:52;;;;;;;9.80;8.20;;;;;;;14.84;73.60;99627.83;130462;1267;108981;-76
2022/10/01 11:49:01;;;;;;;9.40;7.60;;;;;;;14.86;73.46;99621.79;130413;1268;108676;-77
2022/10/01 11:52:18;;;;;;;9.20;7.20;;;;;;;14.89;73.69;99619.71;130375;1268;108708;-79
2022/10/01 11:58:59;;;;;;;11.40;7.60;;;;;;;14.95;73.24;99605.48;130423;1267;108637;-76
2022/10/01 12:02:14;;;;;;;10.60;8.30;;;;;;;14.94;73.01;99602.23;130624;1267;108713;-77
2022/10/01 12:05:22;;;;;;;11.50;8.60;;;;;;;14.94;72.98;99603.41;130430;1268;108869;-75
2022/10/01 12:08:31;;;;;;;8.50;7.30;;;;;;;14.97;73.05;99601.04;130455;1267;108709;-75
2022/10/01 12:11:42;;;;;;;12.30;8.50;;;;;;;15.09;73.05;99597.35;130471;1267;109479;-76
2022/10/01 12:14:55;;;;;;;10.40;8.00;;;;;;;15.21;72.70;99592.98;130587;1266;108829;-75
2022/10/01 12:18:06;;;;;;;9.60;7.90;;;;;;;15.31;72.93;99591.29;130345;1267;108838;-76
2022/10/01 12:21:19;;;;;;;11.80;8.50;;;;;;;15.40;72.68;99591.08;130480;1267;108674;-75
2022/10/01 12:24:30;;;;;;;9.50;8.00;;;;;;;15.41;72.33;99590.16;130556;1267;108665;-75
2022/10/01 12:27:47;;;;;;;10.70;8.10;;;;;;;15.43;72.46;99590.38;130534;1267;108982;-77
2022/10/01 12:31:00;;;;;;;10.30;8.00;;;;;;;15.42;72.37;99588.06;130444;1267;109201;-77
2022/10/01 12:34:17;;;;;;;12.30;9.10;;;;;;;15.44;72.25;99585.80;130479;1267;108194;-75
2022/10/01 12:37:37;;;;;;;11.90;8.90;;;;;;;15.47;72.28;99585.93;130363;1267;108692;-75
2022/10/01 12:40:51;;;;;;;13.70;9.80;;;;;;;15.51;72.15;99581.44;130425;1267;107692;-74
2022/10/01 12:44:26;;;;;;;11.60;9.60;;;;;;;15.55;71.90;99577.93;130503;1266;108706;-75
2022/10/01 12:47:44;;;;;;;12.40;9.40;;;;;;;15.60;72.05;99570.59;130448;1267;108671;-75
2022/10/01 12:50:57;;;;;;;12.10;9.50;;;;;;;15.64;71.92;99568.45;130506;1266;108829;-76
2022/10/01 12:54:13;;;;;;;12.10;9.50;;;;;;;15.67;72.09;99559.44;130454;1267;108979;-78
2022/10/01 12:57:35;;;;;;;11.60;9.20;;;;;;;15.70;71.86;99558.50;130354;1267;108947;-75
2022/10/01 13:00:50;;;;;;;13.20;10.30;;;;;;;15.70;71.73;99552.23;130416;1267;108567;-74
2022/10/01 13:04:18;;;;;;;11.90;9.70;;;;;;;15.69;71.68;99551.29;130367;1267;108751;-75
2022/10/01 13:07:45;;;;;;;11.40;9.20;;;;;;;15.66;71.72;99550.98;130395;1269;108726;-77
2022/10/01 13:11:01;;;;;;;12.20;9.80;;;;;;;15.63;71.81;99548.41;130460;1268;108724;-77
2022/10/01 13:14:11;;;;;;;12.50;9.20;;;;;;;15.60;71.83;99544.36;130503;1268;107634;-81
2022/10/01 13:17:27;;;;;;;12.00;9.40;;;;;;;15.60;71.75;99539.48;130581;1268;108685;-74
2022/10/01 13:20:40;;;;;;;13.00;8.80;;;;;;;15.61;71.55;99537.20;130572;1267;108787;-71
2022/10/01 13:23:52;;;;;;;12.10;8.90;;;;;;;15.61;71.82;99535.66;130410;1268;108685;-68
2022/10/01 13:27:04;;;;;;;11.90;9.30;;;;;;;15.60;71.72;99531.77;130431;1268;109001;-68
2022/10/01 13:30:19;;;;;;;13.40;9.90;;;;;;;15.56;71.71;99524.20;130404;1268;108789;-69
2022/10/01 13:33:27;;;;;;;14.10;9.80;;;;;;;15.49;71.76;99520.49;130599;1267;108687;-73
2022/10/01 13:36:35;;;;;;;12.80;9.20;;;;;;;15.42;71.70;99514.94;130560;1267;108714;-71
2022/10/01 13:39:42;;;;;;;12.80;9.30;;;;;;;15.35;71.86;99512.27;130600;1267;107574;-72
2022/10/01 13:42:49;;;;;;;11.60;9.20;;;;;;;15.27;71.85;99512.95;130579;1267;108697;-74
2022/10/01 13:45:56;;;;;;;12.10;9.40;;;;;;;15.22;71.71;99506.08;130442;1267;108892;-72
2022/10/01 13:49:06;;;;;;;10.60;9.30;;;;;;;15.16;71.93;99506.84;130506;1268;108709;-74
2022/10/01 13:52:20;;;;;;;11.30;9.10;;;;;;;15.10;71.70;99504.91;130757;1266;108733;-76
2022/10/01 13:55:29;;;;;;;30.60;21.50;;;;;;;15.05;72.05;99501.91;130553;1267;108933;-77
2022/10/01 13:58:39;;;;;;;19.80;15.10;;;;;;;15.00;72.07;99497.27;130515;1267;108658;-72
2022/10/01 14:01:44;;;;;;;21.30;17.00;;;;;;;14.99;72.12;99493.55;130497;1267;109075;-71
2022/10/01 14:04:51;;;;;;;37.20;25.60;;;;;;;15.01;72.24;99488.59;130434;1267;108968;-71
2022/10/01 14:08:09;;;;;;;28.40;20.60;;;;;;;15.01;72.03;99481.57;130406;1267;108681;-70
2022/10/01 14:18:19;;;;;;;15.50;12.00;;;;;;;14.89;72.19;99470.11;130534;1267;108003;-72
2022/10/01 14:21:45;;;;;;;24.20;21.60;;;;;;;14.83;72.02;99468.60;130519;1267;107145;-74
2022/10/01 14:25:07;;;;;;;17.70;15.50;;;;;;;14.76;72.37;99464.61;130637;1267;106128;-72
2022/10/01 14:28:29;;;;;;;20.20;16.90;;;;;;;14.70;72.43;99462.92;130472;1265;108919;-73
2022/10/01 14:31:48;;;;;;;19.90;16.40;;;;;;;14.63;72.50;99464.95;130546;1267;108612;-73